createdAt,value
2019-06-20T00:02:15.784Z,58.46
2019-06-20T00:04:47.697Z,58.54
2019-06-20T00:07:19.105Z,59.40
2019-06-20T00:09:52.513Z,58.86
2019-06-20T00:12:23.640Z,64.18
2019-06-20T00:14:54.573Z,59.41
2019-06-20T00:17:26.135Z,61.42
2019-06-20T00:19:57.695Z,60.84
2019-06-20T00:22:28.831Z,60.87
2019-06-20T00:25:02.863Z,60.91
2019-06-20T00:27:33.213Z,61.05
2019-06-20T00:30:04.931Z,61.05
2019-06-20T00:32:36.375Z,64.00
2019-06-20T00:35:08.131Z,62.33
2019-06-20T00:37:39.303Z,63.94
2019-06-20T00:40:10.257Z,60.20
2019-06-20T00:42:41.464Z,62.35
2019-06-20T00:45:13.326Z,61.99
2019-06-20T00:47:44.676Z,60.21
2019-06-20T00:50:16.547Z,62.61
2019-06-20T00:52:48.095Z,63.05
2019-06-20T00:55:19.189Z,62.05
2019-06-20T00:57:50.789Z,61.99
2019-06-20T01:00:22.354Z,61.98
2019-06-20T01:02:53.695Z,61.52
2019-06-20T01:05:25.463Z,62.90
2019-06-20T01:07:57.008Z,62.95
2019-06-20T01:10:28.290Z,64.24
2019-06-20T01:12:59.299Z,63.18
2019-06-20T01:15:30.272Z,64.58
2019-06-20T01:18:01.586Z,70.12
2019-06-20T01:20:32.871Z,64.69
2019-06-20T01:23:03.901Z,64.37
2019-06-20T01:25:36.148Z,66.04
2019-06-20T01:28:07.187Z,70.13
2019-06-20T01:30:38.650Z,67.98
2019-06-20T01:33:09.514Z,65.35
2019-06-20T01:35:40.728Z,67.74
2019-06-20T01:43:00.751Z,66.21
2019-06-20T01:45:32.198Z,67.92
2019-06-20T01:48:03.345Z,69.42
2019-06-20T01:50:34.793Z,65.01
2019-06-20T01:53:06.267Z,65.32
2019-06-20T01:55:38.006Z,66.38
2019-06-20T01:58:08.850Z,68.86
2019-06-20T02:00:49.841Z,68.23
2019-06-20T02:03:21.474Z,68.03
2019-06-20T02:05:52.925Z,68.98
2019-06-20T02:08:24.785Z,71.13
2019-06-20T02:10:56.854Z,69.46
2019-06-20T02:13:28.614Z,64.42
2019-06-20T02:15:59.963Z,63.81
2019-06-20T02:26:24.310Z,66.78
2019-06-20T02:28:55.589Z,65.17
2019-06-20T02:31:26.915Z,62.93
2019-06-20T02:33:58.253Z,63.49
2019-06-20T02:36:30.116Z,61.91
2019-06-20T02:39:01.668Z,63.90
2019-06-20T02:41:32.608Z,62.71
2019-06-20T02:44:04.373Z,67.04
2019-06-20T02:46:35.942Z,64.00
2019-06-20T02:49:07.472Z,62.91
2019-06-20T02:51:38.826Z,64.60
2019-06-20T02:54:10.277Z,66.38
2019-06-20T02:56:41.833Z,65.04
2019-06-20T02:59:13.494Z,64.45
2019-06-20T03:01:45.043Z,65.17
2019-06-20T03:04:18.134Z,65.54
2019-06-20T03:13:24.956Z,61.55
2019-06-20T03:15:56.411Z,61.32
2019-06-20T03:18:27.483Z,63.94
2019-06-20T03:20:58.396Z,63.00
2019-06-20T03:23:29.471Z,63.15
2019-06-20T03:26:00.371Z,62.40
2019-06-20T03:28:31.725Z,63.06
2019-06-20T03:31:02.967Z,60.86
2019-06-20T03:33:33.972Z,61.70
2019-06-20T03:36:05.153Z,59.58
2019-06-20T03:38:36.506Z,61.36
2019-06-20T03:45:32.059Z,60.85
2019-06-20T03:48:03.812Z,62.22
2019-06-20T03:50:35.196Z,61.75
2019-06-20T03:53:06.099Z,59.80
2019-06-20T03:55:37.450Z,59.04
2019-06-20T03:58:08.805Z,61.46
2019-06-20T04:00:39.772Z,59.89
2019-06-20T04:03:11.805Z,60.47
2019-06-20T04:05:43.163Z,59.38
2019-06-20T04:08:14.407Z,59.56
2019-06-20T04:10:45.756Z,58.86
2019-06-20T04:13:16.994Z,59.79
2019-06-20T04:15:48.551Z,59.58
2019-06-20T04:18:19.633Z,59.73
2019-06-20T04:20:50.328Z,58.84
2019-06-20T04:23:21.681Z,58.43
2019-06-20T04:25:53.128Z,59.05
2019-06-20T04:28:24.107Z,60.14
2019-06-20T04:30:55.730Z,59.38
2019-06-20T04:33:26.804Z,60.64
2019-06-20T04:35:57.605Z,60.25
2019-06-20T04:38:29.263Z,57.88
2019-06-20T04:41:00.716Z,59.87
2019-06-20T04:43:31.688Z,58.54
2019-06-20T04:46:07.106Z,60.67
2019-06-20T04:48:38.384Z,59.08
2019-06-20T04:51:09.944Z,59.27
2019-06-20T04:53:41.185Z,58.93
2019-06-20T04:56:12.112Z,57.33
2019-06-20T04:58:43.861Z,58.76
2019-06-20T05:01:14.860Z,56.78
2019-06-20T05:03:46.661Z,56.73
2019-06-20T05:06:18.013Z,57.96
2019-06-20T05:08:49.347Z,57.23
2019-06-20T05:11:21.114Z,57.89
2019-06-20T05:13:52.766Z,57.24
2019-06-20T05:16:24.121Z,57.57
2019-06-20T05:18:55.472Z,56.85
2019-06-20T05:21:26.540Z,55.83
2019-06-20T05:23:57.299Z,56.12
2019-06-20T05:26:28.695Z,55.74
2019-06-20T05:28:59.666Z,55.58
2019-06-20T05:31:30.980Z,55.50
2019-06-20T05:34:02.847Z,55.60
2019-06-20T05:36:34.297Z,56.65
2019-06-20T05:39:07.079Z,56.28
2019-06-20T05:41:38.941Z,54.62
2019-06-20T05:44:10.292Z,54.74
2019-06-20T05:46:42.077Z,55.24
2019-06-20T05:49:13.127Z,53.18
2019-06-20T05:51:43.927Z,53.39
2019-06-20T05:54:16.611Z,52.99
2019-06-20T05:56:48.271Z,52.51
2019-06-20T05:59:19.717Z,52.74
2019-06-20T06:01:51.169Z,52.87
2019-06-20T06:04:22.074Z,52.30
2019-06-20T06:06:53.356Z,51.69
2019-06-20T06:09:24.908Z,51.46
2019-06-20T06:11:56.053Z,50.45
2019-06-20T06:14:27.035Z,51.96
2019-06-20T06:16:57.743Z,50.59
2019-06-20T06:19:29.282Z,50.88
2019-06-20T06:22:00.172Z,51.09
2019-06-20T06:24:30.915Z,49.99
2019-06-20T06:27:01.842Z,48.53
2019-06-20T06:29:32.361Z,50.69
2019-06-20T06:32:02.893Z,49.43
2019-06-20T06:34:33.162Z,48.78
2019-06-20T06:37:03.952Z,49.02
2019-06-20T06:39:34.182Z,48.43
2019-06-20T06:42:05.014Z,48.23
2019-06-20T06:44:35.544Z,49.32
2019-06-20T06:47:06.072Z,47.44
2019-06-20T06:49:36.611Z,49.01
2019-06-20T06:52:07.135Z,47.78
2019-06-20T06:54:37.363Z,46.63
2019-06-20T06:57:08.197Z,46.87
2019-06-20T06:59:38.727Z,47.24
2019-06-20T07:02:08.954Z,44.18
2019-06-20T07:04:39.174Z,47.24
2019-06-20T07:07:09.395Z,46.30
2019-06-20T07:09:39.960Z,45.41
2019-06-20T07:12:10.525Z,44.61
2019-06-20T07:14:42.869Z,45.43
2019-06-20T07:17:13.057Z,44.48
2019-06-20T07:19:43.581Z,43.33
2019-06-20T07:22:14.111Z,44.77
2019-06-20T07:24:44.951Z,42.40
2019-06-20T07:27:16.101Z,42.42
2019-06-20T07:29:46.320Z,42.65
2019-06-20T07:32:16.930Z,42.83
2019-06-20T07:34:47.384Z,41.96
2019-06-20T07:37:18.220Z,41.72
2019-06-20T07:39:48.751Z,41.55
2019-06-20T07:42:19.281Z,41.54
2019-06-20T07:44:50.115Z,42.69
2019-06-20T07:47:20.338Z,39.74
2019-06-20T07:49:50.561Z,39.95
2019-06-20T07:52:21.096Z,39.40
2019-06-20T07:54:51.620Z,40.45
2019-06-20T07:57:22.155Z,39.24
2019-06-20T07:59:52.681Z,41.55
2019-06-20T08:02:23.215Z,40.36
2019-06-20T08:04:53.507Z,39.46
2019-06-20T08:07:24.276Z,37.45
2019-06-20T08:09:54.496Z,36.78
2019-06-20T08:12:24.717Z,36.27
2019-06-20T08:14:55.865Z,36.94
2019-06-20T08:17:35.170Z,36.24
2019-06-20T08:19:58.152Z,35.13
2019-06-20T08:22:28.376Z,34.85
2019-06-20T08:24:59.211Z,35.82
2019-06-20T08:27:47.562Z,36.43
2019-06-20T08:30:19.639Z,36.85
2019-06-20T08:32:50.163Z,35.61
2019-06-20T08:35:22.227Z,35.46
2019-06-20T08:37:53.676Z,35.84
2019-06-20T08:40:24.827Z,34.81
2019-06-20T08:42:57.155Z,37.07
2019-06-20T08:45:28.033Z,34.78
